Time;durP1;ratioP1;P1;durP2;ratioP2;P2;SDS_P1;SDS_P2;PMS_P1;PMS_P2;Temp;Humidity;BMP_temperature;BMP_pressure;BME280_temperature;BME280_humidity;BME280_pressure;Samples;Min_cycle;Max_cycle;Signal;HPM_P1;HPM_P2
2023/06/17 00:01:41;;;;;;;4.32;3.75;;;;;;;;;;5087941;28;20212;-90
2023/06/17 00:04:09;;;;;;;3.97;3.60;;;;;;;;;;5079984;28;20212;-91
2023/06/17 00:06:36;;;;;;;3.85;3.55;;;;;;;;;;5076952;28;20240;-90
2023/06/17 00:09:04;;;;;;;3.88;3.40;;;;;;;;;;5045452;28;20202;-91
2023/06/17 00:11:31;;;;;;;6.07;3.80;;;;;;;;;;5086659;28;20207;-91
2023/06/17 00:14:00;;;;;;;3.78;3.47;;;;;;;;;;5086498;28;20205;-90
2023/06/17 00:16:32;;;;;;;3.85;3.28;;;;;;;;;;5072994;28;20218;-90
2023/06/17 00:19:00;;;;;;;3.65;3.35;;;;;;;;;;5053037;28;20207;-91
2023/06/17 00:21:27;;;;;;;3.45;3.15;;;;;;;;;;5071219;28;20191;-90
2023/06/17 00:23:55;;;;;;;4.03;3.63;;;;;;;;;;5073536;28;20322;-90
2023/06/17 00:26:23;;;;;;;4.20;3.80;;;;;;;;;;5071828;28;20237;-91
2023/06/17 00:28:50;;;;;;;4.65;3.80;;;;;;;;;;5075913;28;20313;-90
2023/06/17 00:31:17;;;;;;;3.92;3.63;;;;;;;;;;5078395;28;20289;-90
2023/06/17 00:33:46;;;;;;;4.70;3.78;;;;;;;;;;5073460;28;20216;-91
2023/06/17 00:36:13;;;;;;;3.90;3.60;;;;;;;;;;5080043;28;20205;-90
2023/06/17 00:38:41;;;;;;;5.93;3.38;;;;;;;;;;5058548;28;20281;-90
2023/06/17 00:41:08;;;;;;;4.57;3.90;;;;;;;;;;5074887;28;20195;-91
2023/06/17 00:43:36;;;;;;;3.72;3.45;;;;;;;;;;5055990;28;20214;-90
2023/06/17 00:46:04;;;;;;;3.83;3.53;;;;;;;;;;5049033;28;20237;-91
2023/06/17 00:48:31;;;;;;;3.88;3.58;;;;;;;;;;5074036;28;20198;-90
2023/06/17 00:51:03;;;;;;;3.83;3.53;;;;;;;;;;5076524;28;20194;-90
2023/06/17 00:53:31;;;;;;;3.58;3.28;;;;;;;;;;5060170;28;20198;-90
2023/06/17 00:55:59;;;;;;;3.97;3.67;;;;;;;;;;5074640;28;20203;-90
2023/06/17 00:58:26;;;;;;;3.90;3.60;;;;;;;;;;5070035;28;20206;-91
2023/06/17 01:00:53;;;;;;;3.75;3.45;;;;;;;;;;5080081;28;20206;-91
2023/06/17 01:03:22;;;;;;;3.72;3.42;;;;;;;;;;5070454;28;20209;-91
2023/06/17 01:05:51;;;;;;;5.18;3.53;;;;;;;;;;5076048;28;20278;-90
2023/06/17 01:08:26;;;;;;;4.10;3.60;;;;;;;;;;5072705;28;20199;-91
2023/06/17 01:10:58;;;;;;;4.03;3.70;;;;;;;;;;5073715;28;20198;-90
2023/06/17 01:13:27;;;;;;;4.70;3.90;;;;;;;;;;5069374;28;20209;-91
2023/06/17 01:15:55;;;;;;;4.32;3.70;;;;;;;;;;5071360;28;20201;-90
2023/06/17 01:18:22;;;;;;;3.78;3.47;;;;;;;;;;5071429;28;20195;-90
2023/06/17 01:20:53;;;;;;;4.00;3.65;;;;;;;;;;5069828;28;20213;-92
2023/06/17 01:23:23;;;;;;;7.88;3.80;;;;;;;;;;5060218;28;20197;-90
2023/06/17 01:25:52;;;;;;;5.65;4.10;;;;;;;;;;5072796;28;20229;-91
2023/06/17 01:28:24;;;;;;;4.40;4.00;;;;;;;;;;5063285;28;20195;-91
2023/06/17 01:30:54;;;;;;;4.00;3.60;;;;;;;;;;5081699;28;20266;-90
2023/06/17 01:33:22;;;;;;;4.10;3.72;;;;;;;;;;5082813;28;20206;-90
2023/06/17 01:35:54;;;;;;;4.80;4.10;;;;;;;;;;5072521;28;20197;-91
2023/06/17 01:38:23;;;;;;;3.95;3.60;;;;;;;;;;5075876;28;20199;-91
2023/06/17 01:40:53;;;;;;;4.32;4.03;;;;;;;;;;5081480;28;20206;-91
2023/06/17 01:43:22;;;;;;;4.47;4.10;;;;;;;;;;5059426;28;20206;-91
2023/06/17 01:45:50;;;;;;;5.47;4.10;;;;;;;;;;5078106;28;20206;-91
2023/06/17 01:48:17;;;;;;;4.68;4.28;;;;;;;;;;5077736;28;20282;-91
2023/06/17 01:50:45;;;;;;;4.65;4.22;;;;;;;;;;5062164;28;20202;-90
2023/06/17 01:53:12;;;;;;;4.18;3.78;;;;;;;;;;5073634;28;20206;-90
2023/06/17 01:55:40;;;;;;;4.57;4.13;;;;;;;;;;5083570;28;20198;-90
2023/06/17 01:58:09;;;;;;;4.22;3.92;;;;;;;;;;5076247;28;20201;-90
2023/06/17 02:00:36;;;;;;;4.90;4.40;;;;;;;;;;5078902;28;20221;-91
2023/06/17 02:03:04;;;;;;;4.78;4.28;;;;;;;;;;5058722;28;20233;-91
2023/06/17 02:05:31;;;;;;;4.30;3.90;;;;;;;;;;5077431;28;20315;-90
2023/06/17 02:08:00;;;;;;;4.15;3.70;;;;;;;;;;5075982;28;20296;-90
2023/06/17 02:10:27;;;;;;;4.38;3.95;;;;;;;;;;5059752;28;20195;-91
2023/06/17 02:12:55;;;;;;;4.70;4.30;;;;;;;;;;5076146;28;20226;-90
2023/06/17 02:15:24;;;;;;;4.60;4.00;;;;;;;;;;5078114;28;20206;-90
2023/06/17 02:17:53;;;;;;;4.55;4.18;;;;;;;;;;5078377;28;20222;-90
2023/06/17 02:20:20;;;;;;;4.30;3.97;;;;;;;;;;5081963;28;20269;-90
2023/06/17 02:22:48;;;;;;;4.35;3.97;;;;;;;;;;5077118;28;20194;-90
2023/06/17 02:25:15;;;;;;;4.10;3.78;;;;;;;;;;5073440;28;20297;-90
2023/06/17 02:27:43;;;;;;;4.32;4.03;;;;;;;;;;5076252;28;20241;-90
2023/06/17 02:30:11;;;;;;;4.90;4.20;;;;;;;;;;5076119;28;20249;-90
2023/06/17 02:32:40;;;;;;;4.57;4.20;;;;;;;;;;5074071;28;20202;-90
2023/06/17 02:35:08;;;;;;;4.65;4.25;;;;;;;;;;5081346;28;20263;-91
2023/06/17 02:37:36;;;;;;;4.60;4.20;;;;;;;;;;5076338;28;20198;-91
2023/06/17 02:40:05;;;;;;;4.10;3.75;;;;;;;;;;5079037;28;20232;-90
2023/06/17 02:42:33;;;;;;;4.25;3.90;;;;;;;;;;5071772;28;20210;-90
2023/06/17 02:45:00;;;;;;;4.20;3.90;;;;;;;;;;5058992;28;20194;-91
2023/06/17 02:47:28;;;;;;;4.65;4.25;;;;;;;;;;5077257;28;20225;-91
2023/06/17 02:49:56;;;;;;;4.63;4.32;;;;;;;;;;5085291;28;20197;-90
2023/06/17 02:52:24;;;;;;;4.43;4.00;;;;;;;;;;5078823;28;20213;-90
2023/06/17 02:54:52;;;;;;;4.18;3.63;;;;;;;;;;5074071;28;20205;-90
2023/06/17 02:57:19;;;;;;;4.47;4.07;;;;;;;;;;5078410;28;20250;-90
2023/06/17 02:59:47;;;;;;;4.70;4.30;;;;;;;;;;5076061;28;20208;-90
2023/06/17 03:02:14;;;;;;;4.75;4.35;;;;;;;;;;5078683;28;20299;-91
2023/06/17 03:04:42;;;;;;;5.00;4.03;;;;;;;;;;5059265;28;20198;-90
2023/06/17 03:07:12;;;;;;;4.28;3.88;;;;;;;;;;5076279;28;20218;-90
2023/06/17 03:09:39;;;;;;;5.53;4.10;;;;;;;;;;5075477;28;20233;-90
2023/06/17 03:12:08;;;;;;;4.35;3.95;;;;;;;;;;5075122;28;20218;-90
2023/06/17 03:14:36;;;;;;;4.68;4.28;;;;;;;;;;5056167;28;20198;-90
2023/06/17 03:17:04;;;;;;;4.50;4.10;;;;;;;;;;5058514;28;20198;-90
2023/06/17 03:19:31;;;;;;;4.47;4.05;;;;;;;;;;5074926;28;20195;-90
2023/06/17 03:21:58;;;;;;;4.45;3.95;;;;;;;;;;5077180;28;20229;-90
2023/06/17 03:24:27;;;;;;;4.35;3.92;;;;;;;;;;5074471;28;20259;-90
2023/06/17 03:26:55;;;;;;;5.25;4.00;;;;;;;;;;5086997;28;20217;-90
2023/06/17 03:29:22;;;;;;;4.55;4.10;;;;;;;;;;5064523;28;20248;-90
2023/06/17 03:31:51;;;;;;;6.10;4.30;;;;;;;;;;5076839;28;20210;-90
2023/06/17 03:34:18;;;;;;;4.30;3.95;;;;;;;;;;5078373;28;20261;-90
2023/06/17 03:36:47;;;;;;;4.15;3.85;;;;;;;;;;5075398;28;20198;-90
2023/06/17 03:39:14;;;;;;;4.63;4.22;;;;;;;;;;5077232;28;20197;-89
2023/06/17 03:41:44;;;;;;;4.97;4.28;;;;;;;;;;5057193;28;20207;-89
2023/06/17 03:44:11;;;;;;;4.57;4.18;;;;;;;;;;5070988;28;20229;-90
2023/06/17 03:46:39;;;;;;;6.00;4.20;;;;;;;;;;5074763;28;20221;-90
2023/06/17 03:49:06;;;;;;;5.00;4.50;;;;;;;;;;5084728;28;20195;-91
2023/06/17 03:51:33;;;;;;;4.13;3.83;;;;;;;;;;5090008;28;20202;-90
2023/06/17 03:54:02;;;;;;;4.78;4.13;;;;;;;;;;5078286;28;20186;-90
2023/06/17 03:56:30;;;;;;;4.65;4.25;;;;;;;;;;5058642;28;20253;-90
2023/06/17 03:58:59;;;;;;;4.65;4.25;;;;;;;;;;5073464;28;20202;-91
2023/06/17 04:01:26;;;;;;;5.38;4.18;;;;;;;;;;5074907;28;20199;-90
2023/06/17 04:03:53;;;;;;;4.38;4.07;;;;;;;;;;5076402;28;20282;-91
2023/06/17 04:06:21;;;;;;;4.43;3.95;;;;;;;;;;5073775;28;20191;-91
2023/06/17 04:08:48;;;;;;;4.65;4.20;;;;;;;;;;5073778;28;20210;-90
2023/06/17 04:11:16;;;;;;;6.15;4.00;;;;;;;;;;5084199;28;20290;-90
2023/06/17 04:13:44;;;;;;;5.43;3.67;;;;;;;;;;5060419;28;20220;-90
2023/06/17 04:16:13;;;;;;;4.47;4.18;;;;;;;;;;5074228;28;20195;-90
2023/06/17 04:18:41;;;;;;;4.53;4.13;;;;;;;;;;5077322;28;20288;-90
2023/06/17 04:21:09;;;;;;;4.78;4.30;;;;;;;;;;5074257;28;20199;-90
2023/06/17 04:23:36;;;;;;;4.63;4.22;;;;;;;;;;5075540;28;20207;-90
2023/06/17 04:26:03;;;;;;;4.45;4.07;;;;;;;;;;5074292;28;20286;-90
2023/06/17 04:28:32;;;;;;;4.60;4.20;;;;;;;;;;5069976;28;20219;-90
2023/06/17 04:31:00;;;;;;;4.30;3.90;;;;;;;;;;5073192;28;20198;-90
2023/06/17 04:33:30;;;;;;;4.38;4.07;;;;;;;;;;5073165;28;20210;-91
2023/06/17 04:35:58;;;;;;;4.70;4.13;;;;;;;;;;5080946;28;20246;-90
2023/06/17 04:38:25;;;;;;;5.32;4.82;;;;;;;;;;5053827;28;20203;-90
2023/06/17 04:40:53;;;;;;;4.65;4.25;;;;;;;;;;5067575;28;20225;-91
2023/06/17 04:43:22;;;;;;;4.68;4.28;;;;;;;;;;5056732;28;20309;-90
2023/06/17 04:45:51;;;;;;;5.03;4.25;;;;;;;;;;5056607;28;20210;-90
2023/06/17 04:48:19;;;;;;;4.68;4.28;;;;;;;;;;5074888;28;20206;-90
2023/06/17 04:50:48;;;;;;;4.80;4.40;;;;;;;;;;5071502;28;20219;-90
2023/06/17 04:53:15;;;;;;;4.57;4.18;;;;;;;;;;5077946;28;20195;-90
2023/06/17 04:55:43;;;;;;;5.55;4.45;;;;;;;;;;5073369;28;20190;-90
2023/06/17 04:58:10;;;;;;;4.53;4.13;;;;;;;;;;5078964;28;20202;-90
2023/06/17 05:00:38;;;;;;;5.00;4.53;;;;;;;;;;5059847;28;20205;-90
2023/06/17 05:03:05;;;;;;;5.18;4.68;;;;;;;;;;5078764;28;20194;-91
2023/06/17 05:05:33;;;;;;;4.88;4.43;;;;;;;;;;5050771;28;20195;-91
2023/06/17 05:08:02;;;;;;;4.68;4.28;;;;;;;;;;5067168;28;20231;-90
2023/06/17 05:10:29;;;;;;;5.95;4.65;;;;;;;;;;5068856;28;20256;-89
2023/06/17 05:12:56;;;;;;;6.00;4.55;;;;;;;;;;5074134;28;20219;-90
2023/06/17 05:15:24;;;;;;;5.95;4.38;;;;;;;;;;5059061;28;20209;-90
2023/06/17 05:17:52;;;;;;;6.85;4.70;;;;;;;;;;5076897;28;20230;-91
2023/06/17 05:20:19;;;;;;;5.60;4.25;;;;;;;;;;5075981;28;20194;-91
2023/06/17 05:22:47;;;;;;;4.65;4.28;;;;;;;;;;5058793;28;20199;-91
2023/06/17 05:25:16;;;;;;;4.47;4.07;;;;;;;;;;5080442;28;20198;-90
2023/06/17 05:27:44;;;;;;;5.80;4.18;;;;;;;;;;5081071;28;20251;-90
2023/06/17 05:30:12;;;;;;;4.75;4.35;;;;;;;;;;5076617;28;20305;-91
2023/06/17 05:32:39;;;;;;;4.93;4.50;;;;;;;;;;5057675;28;20195;-94
2023/06/17 05:35:07;;;;;;;4.65;4.25;;;;;;;;;;5058243;28;20191;-90
2023/06/17 05:37:35;;;;;;;6.20;4.82;;;;;;;;;;5080124;28;20218;-94
2023/06/17 05:40:02;;;;;;;4.30;4.00;;;;;;;;;;5077893;28;20243;-92
2023/06/17 05:42:31;;;;;;;5.65;4.55;;;;;;;;;;5060166;28;20211;-90
2023/06/17 05:44:58;;;;;;;4.85;4.18;;;;;;;;;;5075503;28;20197;-90
2023/06/17 05:47:26;;;;;;;4.88;4.35;;;;;;;;;;5072369;28;20297;-93
2023/06/17 05:49:53;;;;;;;4.90;4.50;;;;;;;;;;5071744;28;20282;-93
2023/06/17 05:52:21;;;;;;;5.60;4.43;;;;;;;;;;5074420;28;20217;-94
2023/06/17 05:54:51;;;;;;;6.03;4.70;;;;;;;;;;5075409;28;20236;-95
2023/06/17 05:57:18;;;;;;;5.00;4.50;;;;;;;;;;5078501;28;20194;-93
2023/06/17 05:59:47;;;;;;;5.20;4.60;;;;;;;;;;5078157;28;20218;-96
2023/06/17 06:02:15;;;;;;;4.95;4.55;;;;;;;;;;5073853;28;20238;-94
2023/06/17 06:04:42;;;;;;;5.95;4.60;;;;;;;;;;5075017;28;20293;-95
2023/06/17 06:07:10;;;;;;;5.30;4.80;;;;;;;;;;5074545;28;20218;-96
2023/06/17 06:09:37;;;;;;;5.05;4.15;;;;;;;;;;5074456;28;20223;-94
2023/06/17 06:12:07;;;;;;;6.10;4.60;;;;;;;;;;5080807;28;20282;-96
2023/06/17 06:14:36;;;;;;;5.70;4.60;;;;;;;;;;5073408;28;20252;-92
2023/06/17 06:17:05;;;;;;;5.30;4.43;;;;;;;;;;5069044;28;20195;-96
2023/06/17 06:19:33;;;;;;;4.65;4.20;;;;;;;;;;5077303;28;20228;-96
2023/06/17 06:22:00;;;;;;;4.97;4.57;;;;;;;;;;5069614;28;20210;-94
2023/06/17 06:24:28;;;;;;;6.40;4.60;;;;;;;;;;5072879;28;20274;-93
2023/06/17 06:26:56;;;;;;;5.20;4.22;;;;;;;;;;5073584;28;20198;-94
2023/06/17 06:29:23;;;;;;;4.57;4.18;;;;;;;;;;5070127;28;20242;-93
2023/06/17 06:31:51;;;;;;;6.60;4.20;;;;;;;;;;5071683;28;20281;-91
2023/06/17 06:34:20;;;;;;;4.68;4.25;;;;;;;;;;5072996;28;20222;-92
2023/06/17 06:36:47;;;;;;;7.28;4.50;;;;;;;;;;5074608;28;20276;-91
2023/06/17 06:39:15;;;;;;;4.78;4.38;;;;;;;;;;5080138;28;20194;-92
2023/06/17 06:41:42;;;;;;;6.63;4.32;;;;;;;;;;5072617;28;20219;-94
2023/06/17 06:44:09;;;;;;;5.22;4.60;;;;;;;;;;5075644;28;20214;-94
2023/06/17 06:46:36;;;;;;;5.35;4.00;;;;;;;;;;5077183;28;20278;-94
2023/06/17 06:49:04;;;;;;;4.70;4.30;;;;;;;;;;5091216;28;20226;-92
2023/06/17 06:51:33;;;;;;;5.18;4.78;;;;;;;;;;5080962;28;20207;-90
2023/06/17 06:54:00;;;;;;;7.97;4.43;;;;;;;;;;5086150;28;20214;-91
2023/06/17 06:56:27;;;;;;;4.88;4.47;;;;;;;;;;5082109;28;20212;-90
2023/06/17 06:58:56;;;;;;;4.70;4.30;;;;;;;;;;5084500;28;20206;-90
2023/06/17 07:01:23;;;;;;;4.53;4.15;;;;;;;;;;5079582;28;20257;-90
2023/06/17 07:03:51;;;;;;;5.05;4.50;;;;;;;;;;5083526;28;20286;-90
2023/06/17 07:06:18;;;;;;;4.88;4.03;;;;;;;;;;5070202;28;20205;-90
2023/06/17 07:08:47;;;;;;;4.65;4.25;;;;;;;;;;5076689;28;20235;-90
2023/06/17 07:11:14;;;;;;;5.35;4.53;;;;;;;;;;5074220;28;20294;-89
2023/06/17 07:13:42;;;;;;;5.45;4.40;;;;;;;;;;5074201;28;20199;-90
2023/06/17 07:16:09;;;;;;;4.63;4.20;;;;;;;;;;5078115;28;20206;-90
2023/06/17 07:18:37;;;;;;;4.85;4.30;;;;;;;;;;5072812;28;20210;-91
2023/06/17 07:21:07;;;;;;;4.47;3.97;;;;;;;;;;5070355;28;20294;-91
2023/06/17 07:23:34;;;;;;;4.72;4.32;;;;;;;;;;5071850;28;20190;-91
2023/06/17 07:26:03;;;;;;;4.88;4.38;;;;;;;;;;5079003;28;20203;-91
2023/06/17 07:28:31;;;;;;;4.95;4.55;;;;;;;;;;5073207;28;20278;-91
2023/06/17 07:30:58;;;;;;;4.72;4.30;;;;;;;;;;5082014;28;20209;-90
2023/06/17 07:33:27;;;;;;;4.85;4.43;;;;;;;;;;5073034;28;20260;-91
2023/06/17 07:35:54;;;;;;;4.68;4.35;;;;;;;;;;5074556;28;20282;-90
2023/06/17 07:38:23;;;;;;;4.32;3.92;;;;;;;;;;5075379;28;20242;-90
2023/06/17 07:40:51;;;;;;;4.22;3.92;;;;;;;;;;5075035;28;20195;-90
2023/06/17 07:43:19;;;;;;;4.80;4.40;;;;;;;;;;5075424;28;20205;-91
2023/06/17 07:45:48;;;;;;;5.25;4.30;;;;;;;;;;5074629;28;20244;-91
2023/06/17 07:48:16;;;;;;;6.93;4.47;;;;;;;;;;5074609;28;20222;-90
2023/06/17 07:50:43;;;;;;;4.80;4.40;;;;;;;;;;5076709;28;20214;-91
2023/06/17 07:53:11;;;;;;;4.88;4.47;;;;;;;;;;5053589;28;20203;-91
2023/06/17 07:55:39;;;;;;;5.10;4.53;;;;;;;;;;5088572;28;20222;-90
2023/06/17 07:58:06;;;;;;;4.97;4.50;;;;;;;;;;5072781;28;20199;-90
2023/06/17 08:00:35;;;;;;;4.60;4.20;;;;;;;;;;5074577;28;20253;-91
2023/06/17 08:03:02;;;;;;;4.32;4.03;;;;;;;;;;5073181;28;20191;-90
2023/06/17 08:05:29;;;;;;;4.63;4.20;;;;;;;;;;5078216;28;20203;-91
2023/06/17 08:07:57;;;;;;;4.18;3.78;;;;;;;;;;5075106;28;20258;-90
2023/06/17 08:10:24;;;;;;;4.32;3.92;;;;;;;;;;5070835;28;20302;-90
2023/06/17 08:12:51;;;;;;;4.65;4.25;;;;;;;;;;5073888;28;20298;-91
2023/06/17 08:15:19;;;;;;;4.68;4.10;;;;;;;;;;5054148;28;20258;-91
2023/06/17 08:17:50;;;;;;;4.40;4.05;;;;;;;;;;5075484;28;20202;-91
2023/06/17 08:20:17;;;;;;;4.28;3.88;;;;;;;;;;5080980;28;20202;-89
2023/06/17 08:22:46;;;;;;;4.22;3.88;;;;;;;;;;5069240;28;20224;-90
2023/06/17 08:25:13;;;;;;;5.75;4.40;;;;;;;;;;5081033;28;20202;-91
2023/06/17 08:27:42;;;;;;;4.53;4.03;;;;;;;;;;5078230;28;20213;-91
2023/06/17 08:30:10;;;;;;;4.35;3.92;;;;;;;;;;5074119;28;20314;-91
2023/06/17 08:32:37;;;;;;;5.70;4.22;;;;;;;;;;5082196;28;20213;-91
2023/06/17 08:35:06;;;;;;;4.82;3.92;;;;;;;;;;5076337;28;20252;-90
2023/06/17 08:37:34;;;;;;;4.72;4.32;;;;;;;;;;5076258;28;20209;-91
2023/06/17 08:40:01;;;;;;;5.90;4.07;;;;;;;;;;5072979;28;20207;-91
2023/06/17 08:42:29;;;;;;;7.30;3.88;;;;;;;;;;5077858;28;20227;-90
2023/06/17 08:44:57;;;;;;;4.05;3.55;;;;;;;;;;5072258;28;20232;-91
2023/06/17 08:47:25;;;;;;;3.55;3.35;;;;;;;;;;5071705;28;20217;-89
2023/06/17 08:49:55;;;;;;;4.25;3.95;;;;;;;;;;5079694;28;20231;-91
2023/06/17 08:52:24;;;;;;;5.47;3.95;;;;;;;;;;5068367;28;20203;-91
2023/06/17 08:54:52;;;;;;;5.25;3.92;;;;;;;;;;5065621;28;20202;-91
2023/06/17 08:57:21;;;;;;;4.97;4.28;;;;;;;;;;5075406;28;20302;-90
2023/06/17 08:59:48;;;;;;;3.60;3.40;;;;;;;;;;5073592;28;20193;-91
2023/06/17 09:02:16;;;;;;;4.00;3.60;;;;;;;;;;5073816;28;20207;-92
2023/06/17 09:04:43;;;;;;;3.90;3.70;;;;;;;;;;5071492;28;20201;-91
2023/06/17 09:07:11;;;;;;;3.90;3.60;;;;;;;;;;5081177;28;20276;-91
2023/06/17 09:09:40;;;;;;;3.97;3.35;;;;;;;;;;5084095;28;20290;-91
2023/06/17 09:12:08;;;;;;;3.90;3.50;;;;;;;;;;5074356;28;20248;-92
2023/06/17 09:14:35;;;;;;;3.65;3.28;;;;;;;;;;5080206;28;20285;-92
2023/06/17 09:17:03;;;;;;;3.35;3.15;;;;;;;;;;5076963;28;20201;-91
2023/06/17 09:19:31;;;;;;;3.97;3.38;;;;;;;;;;5059927;28;20206;-91
2023/06/17 09:22:05;;;;;;;3.60;3.30;;;;;;;;;;5072279;28;20217;-91
2023/06/17 09:24:33;;;;;;;4.18;3.58;;;;;;;;;;5080732;28;20218;-91
2023/06/17 09:27:01;;;;;;;4.05;3.67;;;;;;;;;;5076031;28;20206;-91
2023/06/17 09:29:30;;;;;;;5.18;3.75;;;;;;;;;;5053613;28;20235;-91
2023/06/17 09:31:58;;;;;;;3.67;3.15;;;;;;;;;;5084984;28;20202;-90
2023/06/17 09:34:27;;;;;;;3.70;3.40;;;;;;;;;;5077249;28;20195;-90
2023/06/17 09:36:59;;;;;;;7.70;3.60;;;;;;;;;;5063667;28;20201;-91
2023/06/17 09:39:30;;;;;;;4.20;3.88;;;;;;;;;;5068836;28;20198;-91
2023/06/17 09:41:57;;;;;;;4.07;3.70;;;;;;;;;;5073107;28;20198;-91
2023/06/17 09:44:26;;;;;;;4.18;3.67;;;;;;;;;;5072913;28;20211;-91
2023/06/17 09:46:55;;;;;;;4.13;3.53;;;;;;;;;;5074174;28;20268;-91
2023/06/17 09:49:23;;;;;;;4.00;3.47;;;;;;;;;;5072401;28;20222;-91
2023/06/17 09:51:52;;;;;;;4.15;3.65;;;;;;;;;;5073394;28;20207;-91
2023/06/17 09:54:20;;;;;;;3.67;3.10;;;;;;;;;;5051378;28;20256;-91
2023/06/17 09:56:48;;;;;;;3.33;3.03;;;;;;;;;;5073009;28;20203;-91
2023/06/17 09:59:18;;;;;;;3.50;3.20;;;;;;;;;;5074928;28;20248;-91
2023/06/17 10:01:48;;;;;;;3.90;3.60;;;;;;;;;;5067944;28;20205;-91
2023/06/17 10:04:16;;;;;;;6.22;3.88;;;;;;;;;;5080285;28;20194;-91
2023/06/17 10:06:46;;;;;;;5.28;3.30;;;;;;;;;;5066923;28;20225;-92
2023/06/17 10:09:14;;;;;;;3.20;3.00;;;;;;;;;;5074887;28;20227;-91
2023/06/17 10:11:45;;;;;;;3.05;2.63;;;;;;;;;;5069204;28;20203;-91
2023/06/17 10:14:16;;;;;;;4.57;3.25;;;;;;;;;;5074873;28;20251;-90
2023/06/17 10:16:44;;;;;;;5.75;3.55;;;;;;;;;;5078293;28;20199;-91
2023/06/17 10:19:16;;;;;;;3.33;2.92;;;;;;;;;;5051889;28;20198;-91
2023/06/17 10:21:46;;;;;;;3.20;2.90;;;;;;;;;;5075419;28;20210;-91
2023/06/17 10:24:13;;;;;;;4.28;3.58;;;;;;;;;;5071938;28;20206;-90
2023/06/17 10:26:41;;;;;;;5.32;3.28;;;;;;;;;;5071740;28;20203;-91
2023/06/17 10:29:10;;;;;;;3.45;3.22;;;;;;;;;;5075737;28;20239;-90
2023/06/17 10:31:38;;;;;;;3.13;2.83;;;;;;;;;;5074232;28;20199;-91
2023/06/17 10:34:06;;;;;;;3.20;2.80;;;;;;;;;;5077799;28;20205;-91
2023/06/17 10:36:35;;;;;;;3.53;3.00;;;;;;;;;;5079386;28;20290;-91
2023/06/17 10:39:07;;;;;;;3.17;2.95;;;;;;;;;;5069364;28;20276;-91
2023/06/17 10:41:55;;;;;;;3.40;3.10;;;;;;;;;;5074232;28;20281;-91
2023/06/17 10:44:30;;;;;;;2.90;2.70;;;;;;;;;;5075246;28;20222;-91
2023/06/17 10:46:58;;;;;;;3.83;2.90;;;;;;;;;;5074197;28;20206;-90
2023/06/17 10:49:25;;;;;;;3.03;2.70;;;;;;;;;;5073770;28;20224;-91
2023/06/17 10:51:57;;;;;;;2.80;2.50;;;;;;;;;;5073238;28;20195;-90
2023/06/17 10:54:28;;;;;;;2.80;2.50;;;;;;;;;;5078361;28;20213;-91
2023/06/17 10:56:55;;;;;;;3.42;2.70;;;;;;;;;;5072855;28;20206;-91
2023/06/17 10:59:26;;;;;;;3.28;2.97;;;;;;;;;;5058749;28;20206;-91
2023/06/17 11:01:54;;;;;;;3.15;2.80;;;;;;;;;;5078211;28;20214;-91
2023/06/17 11:04:21;;;;;;;2.85;2.63;;;;;;;;;;5073956;28;20282;-91
2023/06/17 11:06:49;;;;;;;2.53;2.33;;;;;;;;;;5071660;28;20196;-91
2023/06/17 11:09:18;;;;;;;3.03;2.33;;;;;;;;;;5073854;28;20215;-92
2023/06/17 11:11:45;;;;;;;2.85;2.03;;;;;;;;;;5067621;28;20261;-91
2023/06/17 11:14:13;;;;;;;2.33;2.13;;;;;;;;;;5072874;28;20282;-91
2023/06/17 11:16:40;;;;;;;2.67;2.38;;;;;;;;;;5074428;28;20214;-90
2023/06/17 11:19:07;;;;;;;5.10;2.40;;;;;;;;;;5074563;28;20202;-90
2023/06/17 11:21:37;;;;;;;2.95;2.67;;;;;;;;;;5075331;28;20266;-91
2023/06/17 11:24:04;;;;;;;3.58;2.40;;;;;;;;;;5071423;28;20217;-91
2023/06/17 11:26:34;;;;;;;3.17;2.88;;;;;;;;;;5057639;28;20195;-91
2023/06/17 11:29:01;;;;;;;2.80;2.60;;;;;;;;;;5078861;28;20239;-91
2023/06/17 11:31:28;;;;;;;2.75;2.50;;;;;;;;;;5084470;28;20278;-92
2023/06/17 11:33:59;;;;;;;4.00;2.60;;;;;;;;;;5086825;28;20209;-92
2023/06/17 11:36:26;;;;;;;4.80;2.67;;;;;;;;;;5069499;28;20220;-91
2023/06/17 11:38:55;;;;;;;3.45;3.08;;;;;;;;;;5074948;28;20201;-91
2023/06/17 11:41:23;;;;;;;3.50;2.80;;;;;;;;;;5069974;28;20213;-90
2023/06/17 11:43:52;;;;;;;3.47;3.17;;;;;;;;;;5087436;28;20213;-91
2023/06/17 11:46:21;;;;;;;3.10;2.90;;;;;;;;;;5080458;28;20217;-91
2023/06/17 11:48:48;;;;;;;2.80;2.60;;;;;;;;;;5074521;28;20260;-91
2023/06/17 11:51:16;;;;;;;3.15;2.88;;;;;;;;;;5074513;28;20191;-91
2023/06/17 11:53:45;;;;;;;3.00;2.80;;;;;;;;;;5083243;28;20198;-91
2023/06/17 11:56:14;;;;;;;4.72;2.97;;;;;;;;;;5071948;28;20205;-92
2023/06/17 11:58:42;;;;;;;3.10;2.80;;;;;;;;;;5085233;28;20201;-92
2023/06/17 12:01:11;;;;;;;5.63;2.92;;;;;;;;;;5075200;28;20217;-92
2023/06/17 12:03:39;;;;;;;4.00;3.00;;;;;;;;;;5072823;28;20198;-92
2023/06/17 12:06:06;;;;;;;3.92;3.13;;;;;;;;;;5070558;28;20213;-92
2023/06/17 12:08:34;;;;;;;2.70;2.50;;;;;;;;;;5069295;28;20202;-91
2023/06/17 12:11:06;;;;;;;3.97;3.00;;;;;;;;;;5073725;28;20301;-91
2023/06/17 12:13:40;;;;;;;3.85;3.00;;;;;;;;;;5066999;28;20324;-91
2023/06/17 12:16:12;;;;;;;6.57;2.90;;;;;;;;;;5074848;28;20213;-91
2023/06/17 12:18:48;;;;;;;3.05;2.75;;;;;;;;;;5089672;28;20208;-91
2023/06/17 12:21:15;;;;;;;5.13;2.70;;;;;;;;;;5076595;28;20209;-92
2023/06/17 12:23:43;;;;;;;3.67;2.90;;;;;;;;;;5073768;28;20226;-92
2023/06/17 12:26:10;;;;;;;4.13;3.10;;;;;;;;;;5074494;28;20199;-92
2023/06/17 12:28:40;;;;;;;3.63;2.58;;;;;;;;;;5073998;28;20217;-91
2023/06/17 12:31:08;;;;;;;3.20;2.92;;;;;;;;;;5070396;28;20211;-91
2023/06/17 12:33:37;;;;;;;3.30;3.00;;;;;;;;;;5054529;28;20245;-92
2023/06/17 12:36:05;;;;;;;4.47;3.10;;;;;;;;;;5075971;28;20194;-91
2023/06/17 12:38:32;;;;;;;6.13;3.33;;;;;;;;;;5071214;28;20297;-92
2023/06/17 12:41:00;;;;;;;3.75;3.10;;;;;;;;;;5073825;28;20234;-92
2023/06/17 12:43:28;;;;;;;3.03;2.78;;;;;;;;;;5086175;28;20198;-91
2023/06/17 12:45:55;;;;;;;4.40;3.00;;;;;;;;;;5067648;28;20201;-89
2023/06/17 12:48:22;;;;;;;4.22;3.17;;;;;;;;;;5072102;28;20190;-91
2023/06/17 12:50:51;;;;;;;6.70;2.92;;;;;;;;;;5065408;28;20220;-91
2023/06/17 12:53:18;;;;;;;3.05;2.75;;;;;;;;;;5080763;28;20222;-91
2023/06/17 12:55:46;;;;;;;3.83;2.75;;;;;;;;;;5079844;28;20205;-90
2023/06/17 12:58:13;;;;;;;3.80;3.08;;;;;;;;;;5078913;28;20211;-91
2023/06/17 13:00:40;;;;;;;3.33;2.70;;;;;;;;;;5072119;28;20205;-91
2023/06/17 13:03:08;;;;;;;3.55;2.90;;;;;;;;;;5079152;28;20206;-91
2023/06/17 13:05:35;;;;;;;3.55;3.00;;;;;;;;;;5073690;28;20294;-91
2023/06/17 13:08:04;;;;;;;3.13;2.90;;;;;;;;;;5081053;28;20278;-92
2023/06/17 13:10:31;;;;;;;3.95;3.20;;;;;;;;;;5071444;28;20214;-91
2023/06/17 13:12:58;;;;;;;3.38;3.08;;;;;;;;;;5071199;28;20337;-91
2023/06/17 13:15:29;;;;;;;3.47;3.10;;;;;;;;;;5073111;28;20293;-91
2023/06/17 13:17:56;;;;;;;3.40;3.15;;;;;;;;;;5084591;28;20277;-91
2023/06/17 13:20:24;;;;;;;3.13;2.90;;;;;;;;;;5084540;28;20286;-91
2023/06/17 13:22:51;;;;;;;3.08;2.85;;;;;;;;;;5073020;28;20244;-91
2023/06/17 13:25:21;;;;;;;3.78;3.08;;;;;;;;;;5068714;28;20210;-92
2023/06/17 13:27:48;;;;;;;3.05;2.75;;;;;;;;;;5070246;28;20198;-92
2023/06/17 13:30:15;;;;;;;3.47;3.17;;;;;;;;;;5074702;28;20313;-92
2023/06/17 13:32:44;;;;;;;3.40;3.13;;;;;;;;;;5070217;28;20206;-92
2023/06/17 13:35:11;;;;;;;3.63;3.33;;;;;;;;;;5070937;28;20193;-94
2023/06/17 13:37:38;;;;;;;3.45;3.17;;;;;;;;;;5069976;28;20211;-91
2023/06/17 13:40:06;;;;;;;3.53;3.28;;;;;;;;;;5073850;28;20278;-93
2023/06/17 13:42:37;;;;;;;14.52;12.38;;;;;;;;;;5074164;28;20213;-92
2023/06/17 13:45:05;;;;;;;3.88;3.58;;;;;;;;;;5073538;28;20252;-90
2023/06/17 13:47:32;;;;;;;3.20;3.00;;;;;;;;;;5079300;28;20215;-91
2023/06/17 13:50:00;;;;;;;3.22;3.00;;;;;;;;;;5072493;28;20297;-89
2023/06/17 13:52:27;;;;;;;3.38;3.08;;;;;;;;;;5077243;28;20195;-90
2023/06/17 13:54:54;;;;;;;3.58;3.08;;;;;;;;;;5094967;28;20194;-90
2023/06/17 13:57:21;;;;;;;3.40;3.10;;;;;;;;;;5086945;28;20206;-90
2023/06/17 13:59:50;;;;;;;5.20;3.15;;;;;;;;;;5075243;28;20230;-90
2023/06/17 14:02:18;;;;;;;3.28;2.97;;;;;;;;;;5088045;28;20205;-89
2023/06/17 14:04:45;;;;;;;3.53;2.88;;;;;;;;;;5076775;28;20211;-90
2023/06/17 14:07:12;;;;;;;3.25;3.03;;;;;;;;;;5077046;28;20197;-90
2023/06/17 14:09:39;;;;;;;3.30;3.10;;;;;;;;;;5076305;28;20206;-90
2023/06/17 14:12:07;;;;;;;4.82;3.40;;;;;;;;;;5076717;28;20225;-89
2023/06/17 14:14:34;;;;;;;3.58;2.83;;;;;;;;;;5075979;28;20202;-90
2023/06/17 14:17:03;;;;;;;4.13;3.08;;;;;;;;;;5075402;28;20198;-90
2023/06/17 14:19:33;;;;;;;5.18;3.08;;;;;;;;;;5076641;28;20189;-90
2023/06/17 14:22:01;;;;;;;3.50;3.20;;;;;;;;;;5075633;28;20214;-90
2023/06/17 14:24:28;;;;;;;3.72;3.00;;;;;;;;;;5076014;28;20195;-89
2023/06/17 14:27:15;;;;;;;3.28;2.90;;;;;;;;;;5075885;28;20206;-90
2023/06/17 14:29:42;;;;;;;3.80;3.42;;;;;;;;;;5075766;28;20241;-90
2023/06/17 14:32:11;;;;;;;3.72;3.20;;;;;;;;;;5059077;28;20294;-90
2023/06/17 14:34:38;;;;;;;4.20;3.20;;;;;;;;;;5076353;28;20199;-90
2023/06/17 14:37:06;;;;;;;3.20;3.00;;;;;;;;;;5075039;28;20202;-90
2023/06/17 14:39:33;;;;;;;3.53;3.30;;;;;;;;;;5056086;28;20195;-90
2023/06/17 14:42:00;;;;;;;3.40;3.10;;;;;;;;;;5072308;28;20288;-90
2023/06/17 14:44:28;;;;;;;5.53;3.38;;;;;;;;;;5071573;28;20203;-90
2023/06/17 14:46:55;;;;;;;4.72;3.70;;;;;;;;;;5062325;28;20199;-90
2023/06/17 14:49:24;;;;;;;3.30;2.97;;;;;;;;;;5080922;28;20213;-90